createdAt,value
2018-08-23T00:01:27.725Z,17.40
2018-08-23T00:03:58.032Z,17.30
2018-08-23T00:06:26.266Z,17.10
2018-08-23T00:08:57.210Z,17.20
2018-08-23T00:11:27.294Z,17.10
2018-08-23T00:13:55.562Z,17.10
2018-08-23T00:16:30.095Z,17.00
2018-08-23T00:18:58.389Z,17.00
2018-08-23T00:21:27.017Z,16.90
2018-08-23T00:24:14.020Z,16.90
2018-08-23T00:26:58.356Z,16.90
2018-08-23T00:29:28.890Z,16.90
2018-08-23T00:32:01.053Z,16.90
2018-08-23T00:34:43.415Z,16.90
2018-08-23T00:37:13.762Z,16.80
2018-08-23T00:39:44.018Z,16.90
2018-08-23T00:42:14.294Z,16.80
2018-08-23T00:44:54.987Z,16.70
2018-08-23T00:47:25.430Z,16.70
2018-08-23T00:49:53.637Z,16.80
2018-08-23T00:52:33.663Z,16.70
2018-08-23T00:55:14.704Z,16.80
2018-08-23T00:57:45.396Z,17.00
2018-08-23T01:00:19.608Z,17.00
2018-08-23T01:02:49.241Z,17.10
2018-08-23T01:05:23.273Z,17.10
2018-08-23T01:07:51.803Z,17.20
2018-08-23T01:10:20.186Z,17.20
2018-08-23T01:12:57.613Z,17.20
2018-08-23T01:15:26.027Z,17.30
2018-08-23T01:18:09.677Z,17.30
2018-08-23T01:20:39.461Z,17.30
2018-08-23T01:23:08.501Z,17.30
2018-08-23T01:25:39.070Z,17.40
2018-08-23T01:28:09.289Z,17.40
2018-08-23T01:30:39.013Z,17.40
2018-08-23T01:33:14.638Z,17.50
2018-08-23T01:35:45.452Z,17.50
2018-08-23T01:38:15.175Z,17.50
2018-08-23T01:40:45.117Z,17.40
2018-08-23T01:43:14.496Z,17.40
2018-08-23T01:45:43.953Z,17.30
2018-08-23T01:48:13.261Z,17.30
2018-08-23T01:50:42.572Z,17.30
2018-08-23T01:53:12.331Z,17.30
2018-08-23T01:55:42.116Z,17.30
2018-08-23T01:58:12.122Z,17.40
2018-08-23T02:00:41.811Z,17.40
2018-08-23T02:03:11.547Z,17.40
2018-08-23T02:05:43.389Z,17.40
2018-08-23T02:08:13.710Z,17.40
2018-08-23T02:10:42.792Z,17.40
2018-08-23T02:13:16.374Z,17.40
2018-08-23T02:15:51.139Z,17.40
2018-08-23T02:18:19.423Z,17.50
2018-08-23T02:20:50.101Z,17.60
2018-08-23T02:23:18.533Z,17.70
2018-08-23T02:25:47.335Z,17.90
2018-08-23T02:28:16.236Z,18.10
2018-08-23T02:31:03.880Z,18.30
2018-08-23T02:33:32.558Z,18.30
2018-08-23T02:36:10.725Z,18.50
2018-08-23T02:38:41.118Z,18.50
2018-08-23T02:41:11.227Z,18.50
2018-08-23T02:43:41.632Z,18.30
2018-08-23T02:46:11.117Z,18.20
2018-08-23T02:48:41.296Z,18.10
2018-08-23T02:51:11.447Z,17.80
2018-08-23T02:53:49.026Z,17.60
2018-08-23T02:56:19.962Z,17.50
2018-08-23T02:59:00.010Z,17.30
2018-08-23T03:01:30.522Z,17.10
2018-08-23T03:04:13.111Z,17.00
2018-08-23T03:07:12.793Z,16.90
2018-08-23T03:09:44.490Z,16.80
2018-08-23T03:12:17.160Z,16.80
2018-08-23T03:14:46.002Z,16.70
2018-08-23T03:17:21.815Z,16.70
2018-08-23T03:20:18.193Z,16.80
2018-08-23T03:22:47.937Z,16.80
2018-08-23T03:25:17.708Z,16.70
2018-08-23T03:27:46.343Z,16.60
2018-08-23T03:30:16.379Z,16.60
2018-08-23T03:32:45.749Z,16.60
2018-08-23T03:35:14.902Z,16.60
2018-08-23T03:37:44.565Z,16.50
2018-08-23T03:40:14.892Z,16.50
2018-08-23T03:42:43.801Z,16.50
2018-08-23T03:45:17.916Z,16.50
2018-08-23T03:47:50.490Z,16.60
2018-08-23T03:50:19.076Z,16.70
2018-08-23T03:52:50.692Z,16.80
2018-08-23T03:55:20.431Z,17.00
2018-08-23T03:57:51.491Z,17.10
2018-08-23T04:00:26.217Z,17.10
2018-08-23T04:02:55.132Z,17.10
2018-08-23T04:05:23.571Z,17.20
2018-08-23T04:07:51.945Z,17.30
2018-08-23T04:10:20.352Z,17.40
2018-08-23T04:12:48.807Z,17.60
2018-08-23T04:15:23.103Z,17.60
2018-08-23T04:17:51.712Z,17.60
2018-08-23T04:20:20.152Z,17.60
2018-08-23T04:22:48.724Z,17.60
2018-08-23T04:25:17.338Z,17.60
2018-08-23T04:27:46.830Z,17.60
2018-08-23T04:30:15.512Z,17.70
2018-08-23T04:32:46.749Z,17.80
2018-08-23T04:35:33.679Z,17.80
2018-08-23T04:38:02.447Z,17.90
2018-08-23T04:40:31.112Z,17.90
2018-08-23T04:42:59.498Z,18.00
2018-08-23T04:45:29.888Z,18.00
2018-08-23T04:48:13.685Z,18.00
2018-08-23T04:50:43.117Z,18.10
2018-08-23T04:53:12.139Z,18.20
2018-08-23T04:55:41.220Z,18.30
2018-08-23T04:58:10.174Z,18.30
2018-08-23T05:00:38.781Z,18.40
2018-08-23T05:03:06.990Z,18.50
2018-08-23T05:05:35.436Z,18.60
2018-08-23T05:08:04.020Z,18.60
2018-08-23T05:10:32.800Z,18.70
2018-08-23T05:13:01.776Z,18.80
2018-08-23T05:15:30.424Z,18.90
2018-08-23T05:17:58.887Z,19.00
2018-08-23T05:20:27.339Z,19.10
2018-08-23T05:23:01.368Z,19.20
2018-08-23T05:25:30.072Z,19.30
2018-08-23T05:28:11.628Z,19.40
2018-08-23T05:30:42.406Z,19.50
2018-08-23T05:33:15.431Z,19.70
2018-08-23T05:35:44.209Z,19.80
2018-08-23T05:38:13.623Z,19.90
2018-08-23T05:40:49.228Z,19.90
2018-08-23T05:43:17.816Z,20.10
2018-08-23T05:45:47.330Z,20.20
2018-08-23T05:48:36.580Z,20.30
2018-08-23T05:51:14.264Z,20.40
2018-08-23T05:53:47.681Z,20.60
2018-08-23T05:56:17.520Z,20.70
2018-08-23T05:58:46.253Z,20.80
2018-08-23T06:01:15.027Z,21.00
2018-08-23T06:03:44.000Z,21.40
2018-08-23T06:06:13.005Z,21.90
2018-08-23T06:08:43.099Z,22.70
2018-08-23T06:11:12.571Z,23.50
2018-08-23T06:13:41.639Z,24.20
2018-08-23T06:16:10.440Z,24.80
2018-08-23T06:18:39.620Z,25.60
2018-08-23T06:21:09.186Z,26.10
2018-08-23T06:23:59.028Z,26.30
2018-08-23T06:26:41.881Z,26.60
2018-08-23T06:29:13.748Z,27.00
2018-08-23T06:32:00.983Z,26.40
2018-08-23T06:34:32.771Z,25.30
2018-08-23T06:37:01.504Z,24.40
2018-08-23T06:39:30.164Z,23.80
2018-08-23T06:41:59.948Z,23.50
2018-08-23T06:44:41.632Z,23.00
2018-08-23T06:47:12.133Z,23.00
2018-08-23T06:49:42.405Z,22.70
2018-08-23T06:52:15.120Z,22.70
2018-08-23T06:54:47.711Z,22.70
2018-08-23T06:57:16.528Z,22.70
2018-08-23T06:59:45.813Z,22.70
2018-08-23T07:02:14.956Z,22.70
2018-08-23T07:04:44.738Z,22.80
2018-08-23T07:07:17.729Z,22.80
2018-08-23T07:09:46.842Z,23.00
2018-08-23T07:12:20.163Z,23.00
2018-08-23T07:14:50.564Z,23.00
2018-08-23T07:17:24.507Z,23.10
2018-08-23T07:19:54.346Z,23.40
2018-08-23T07:22:25.202Z,23.60
2018-08-23T07:24:55.780Z,23.90
2018-08-23T07:27:25.340Z,24.10
2018-08-23T07:29:56.727Z,24.20
2018-08-23T07:32:26.350Z,24.70
2018-08-23T07:35:29.449Z,25.60
2018-08-23T07:37:57.825Z,26.20
2018-08-23T07:40:26.339Z,27.60
2018-08-23T07:42:55.504Z,28.10
2018-08-23T07:45:24.003Z,28.80
2018-08-23T07:47:53.799Z,28.40
2018-08-23T07:50:22.267Z,29.20
2018-08-23T07:52:51.997Z,30.50
2018-08-23T07:55:20.367Z,30.40
2018-08-23T07:57:48.715Z,28.80
2018-08-23T08:00:43.519Z,29.50
2018-08-23T08:03:13.993Z,28.30
2018-08-23T08:05:44.263Z,29.20
2018-08-23T08:08:13.775Z,29.90
2018-08-23T08:10:46.284Z,30.70
2018-08-23T08:13:15.193Z,30.80
2018-08-23T08:15:44.296Z,30.50
2018-08-23T08:18:18.621Z,31.20
2018-08-23T08:20:53.736Z,30.90
2018-08-23T08:23:22.345Z,29.30
2018-08-23T08:25:50.841Z,29.90
2018-08-23T08:28:19.568Z,30.60
2018-08-23T08:30:48.699Z,31.20
2018-08-23T08:33:21.872Z,30.40
2018-08-23T08:35:51.784Z,30.10
2018-08-23T08:38:20.196Z,30.90
2018-08-23T08:40:51.384Z,31.40
2018-08-23T08:43:20.016Z,31.10
2018-08-23T08:45:52.937Z,30.30
2018-08-23T08:48:26.716Z,29.00
2018-08-23T08:51:11.968Z,28.50
2018-08-23T08:53:41.191Z,28.50
2018-08-23T08:56:10.596Z,29.70
2018-08-23T08:58:41.222Z,31.20
2018-08-23T09:01:10.896Z,32.60
2018-08-23T09:03:39.937Z,33.50
2018-08-23T09:06:09.663Z,34.20
2018-08-23T09:08:39.133Z,34.00
2018-08-23T09:11:07.873Z,33.90
2018-08-23T09:13:42.016Z,34.60
2018-08-23T09:16:12.075Z,34.00
2018-08-23T09:18:42.903Z,34.70
2018-08-23T09:21:11.960Z,34.20
2018-08-23T09:23:41.400Z,33.70
2018-08-23T09:26:10.583Z,34.30
2018-08-23T09:28:39.885Z,35.00
2018-08-23T09:31:08.596Z,34.80
2018-08-23T09:33:37.277Z,35.20
2018-08-23T09:36:05.844Z,35.70
2018-08-23T09:38:34.744Z,35.20
2018-08-23T09:41:03.493Z,34.80
2018-08-23T09:43:33.533Z,35.20
2018-08-23T09:46:03.060Z,35.90
2018-08-23T09:48:32.336Z,35.50
2018-08-23T09:51:01.408Z,38.30
2018-08-23T09:53:29.846Z,38.60
2018-08-23T09:55:58.409Z,38.00
2018-08-23T09:58:32.708Z,35.90
2018-08-23T10:01:06.661Z,35.60
2018-08-23T10:03:40.948Z,36.10
2018-08-23T10:06:16.379Z,36.30
2018-08-23T10:08:51.853Z,36.30
2018-08-23T10:11:25.637Z,37.90
2018-08-23T10:13:59.247Z,39.50
2018-08-23T10:16:34.048Z,38.40
2018-08-23T10:19:10.124Z,38.30
2018-08-23T10:21:44.357Z,38.30
2018-08-23T10:24:18.584Z,38.40
2018-08-23T10:26:47.437Z,38.00
2018-08-23T10:29:16.753Z,37.20
2018-08-23T10:31:45.852Z,37.60
2018-08-23T10:34:14.860Z,37.70
2018-08-23T10:36:43.972Z,36.90
2018-08-23T10:39:14.216Z,35.60
2018-08-23T10:41:43.711Z,37.40
2018-08-23T10:44:14.088Z,37.00
2018-08-23T10:46:48.170Z,36.40
2018-08-23T10:49:17.051Z,36.40
2018-08-23T10:51:45.973Z,37.20
2018-08-23T10:54:15.355Z,37.60
2018-08-23T10:56:45.328Z,37.30
2018-08-23T10:59:15.020Z,38.00
2018-08-23T11:01:44.250Z,37.40
2018-08-23T11:04:14.054Z,37.60
2018-08-23T11:07:00.116Z,37.80
2018-08-23T11:09:33.933Z,38.10
2018-08-23T11:12:03.015Z,39.00
2018-08-23T11:14:36.804Z,38.10
2018-08-23T11:17:10.958Z,37.00
2018-08-23T11:19:45.189Z,37.30
2018-08-23T11:22:15.188Z,36.70
2018-08-23T11:24:44.372Z,36.70
2018-08-23T11:27:13.851Z,36.70
2018-08-23T11:29:43.993Z,38.60
2018-08-23T11:32:13.987Z,40.90
2018-08-23T11:34:44.283Z,41.00
2018-08-23T11:37:14.263Z,39.80
2018-08-23T11:39:44.083Z,38.30
2018-08-23T11:42:13.539Z,38.20
2018-08-23T11:44:43.783Z,39.80
2018-08-23T11:47:13.632Z,39.80
2018-08-23T11:49:42.783Z,39.00
2018-08-23T11:52:12.671Z,39.80
2018-08-23T11:54:41.415Z,39.80
2018-08-23T11:57:11.187Z,37.10
2018-08-23T11:59:40.300Z,38.10
2018-08-23T12:02:09.811Z,38.70
2018-08-23T12:04:38.181Z,39.50
2018-08-23T12:07:06.559Z,39.40
2018-08-23T12:09:35.063Z,39.50
2018-08-23T12:12:04.602Z,40.20
2018-08-23T12:14:33.239Z,39.00
2018-08-23T12:17:01.868Z,38.20
2018-08-23T12:19:30.237Z,40.20
2018-08-23T12:21:58.527Z,40.20
2018-08-23T12:24:26.744Z,39.80
2018-08-23T12:26:54.978Z,40.50
2018-08-23T12:29:23.211Z,39.60
2018-08-23T12:31:54.030Z,37.40
2018-08-23T12:34:30.977Z,37.30
2018-08-23T12:37:04.662Z,36.20
2018-08-23T12:39:38.590Z,35.30
2018-08-23T12:42:12.682Z,35.30
2018-08-23T12:44:46.979Z,35.90
2018-08-23T12:47:15.683Z,37.00
2018-08-23T12:49:47.122Z,38.10
2018-08-23T12:52:15.706Z,38.80
2018-08-23T12:54:45.433Z,39.10
2018-08-23T12:57:14.991Z,38.20
2018-08-23T12:59:45.287Z,36.70
2018-08-23T13:02:15.116Z,35.80
2018-08-23T13:04:45.777Z,36.10
2018-08-23T13:07:15.316Z,35.80
2018-08-23T13:09:44.929Z,34.20
2018-08-23T13:12:15.301Z,33.70
2018-08-23T13:14:45.041Z,33.00
2018-08-23T13:17:14.099Z,32.60
2018-08-23T13:19:44.411Z,32.20
2018-08-23T13:22:18.523Z,32.50
2018-08-23T13:24:52.557Z,32.70
2018-08-23T13:27:20.787Z,32.60
2018-08-23T13:29:49.165Z,32.60
2018-08-23T13:32:17.823Z,32.00
2018-08-23T13:34:46.598Z,31.80
2018-08-23T13:37:15.222Z,31.60
2018-08-23T13:39:44.991Z,31.60
2018-08-23T13:42:14.299Z,31.70
2018-08-23T13:44:45.791Z,32.00
2018-08-23T13:47:15.355Z,31.80
2018-08-23T13:52:34.820Z,32.30
2018-08-23T13:55:03.299Z,32.40
2018-08-23T13:57:33.271Z,32.60
2018-08-23T14:00:01.774Z,32.80
2018-08-23T14:02:30.139Z,32.70
2018-08-23T14:04:58.417Z,33.00
2018-08-23T14:07:26.638Z,32.80
2018-08-23T14:09:54.841Z,32.20
2018-08-23T14:12:23.070Z,31.90
2018-08-23T14:14:51.287Z,31.90
2018-08-23T14:17:19.550Z,31.80
2018-08-23T14:19:48.146Z,31.70
2018-08-23T14:22:16.786Z,32.30
2018-08-23T14:24:45.779Z,32.30
2018-08-23T14:27:14.845Z,32.10
2018-08-23T14:29:44.454Z,31.70
2018-08-23T14:32:14.091Z,29.70
2018-08-23T14:34:43.722Z,29.20
2018-08-23T14:37:14.210Z,29.10
2018-08-23T14:39:44.076Z,29.10
2018-08-23T14:42:13.819Z,28.10
2018-08-23T14:44:43.354Z,27.60
2018-08-23T14:47:18.047Z,27.80
2018-08-23T14:49:46.571Z,28.20
2018-08-23T14:52:15.482Z,28.10
2018-08-23T14:54:44.910Z,28.50
2018-08-23T14:57:19.538Z,29.30
2018-08-23T14:59:48.174Z,29.30
2018-08-23T15:02:16.747Z,29.00
2018-08-23T15:04:46.469Z,29.30
2018-08-23T15:07:16.102Z,29.60
2018-08-23T15:09:45.820Z,29.00
2018-08-23T15:12:15.429Z,28.80
2018-08-23T15:14:45.709Z,28.20
2018-08-23T15:17:16.439Z,28.50
2018-08-23T15:19:46.131Z,28.40
2018-08-23T15:22:15.380Z,28.70
2018-08-23T15:24:44.734Z,28.60
2018-08-23T15:27:15.297Z,28.70
2018-08-23T15:29:45.258Z,29.00
2018-08-23T15:32:15.149Z,29.30
2018-08-23T15:34:45.215Z,28.70
2018-08-23T15:37:15.376Z,28.50
2018-08-23T15:39:46.070Z,28.50
2018-08-23T15:42:16.208Z,28.10
2018-08-23T15:44:46.003Z,27.80
2018-08-23T15:47:15.094Z,27.90
2018-08-23T15:49:44.431Z,27.50
2018-08-23T15:52:13.674Z,27.50
2018-08-23T15:54:43.359Z,27.40
2018-08-23T15:57:14.258Z,27.10
2018-08-23T15:59:44.071Z,26.80
2018-08-23T16:02:14.460Z,26.50
2018-08-23T16:04:46.038Z,26.60
2018-08-23T16:07:15.449Z,26.80
2018-08-23T16:09:44.973Z,26.90
2018-08-23T16:12:14.201Z,27.00
2018-08-23T16:14:43.766Z,27.00
2018-08-23T16:17:19.546Z,27.10
2018-08-23T16:19:53.830Z,26.90
2018-08-23T16:22:22.034Z,26.70
2018-08-23T16:24:50.329Z,26.30
2018-08-23T16:27:18.809Z,25.90
2018-08-23T16:29:50.503Z,25.70
2018-08-23T16:32:24.322Z,25.40
2018-08-23T16:34:52.685Z,25.20
2018-08-23T16:37:21.193Z,25.10
2018-08-23T16:39:49.815Z,24.90
2018-08-23T16:42:19.057Z,24.40
2018-08-23T16:44:47.786Z,24.10
2018-08-23T16:47:16.751Z,22.90
2018-08-23T16:49:46.391Z,21.70
2018-08-23T16:52:15.273Z,21.00
2018-08-23T16:54:44.421Z,19.70
2018-08-23T16:57:13.321Z,19.80
2018-08-23T16:59:42.889Z,19.80
2018-08-23T17:02:13.039Z,19.90
2018-08-23T17:04:43.189Z,20.00
2018-08-23T17:07:13.666Z,20.00
2018-08-23T17:09:43.689Z,20.00
2018-08-23T17:12:14.416Z,20.20
2018-08-23T17:14:44.163Z,20.30
2018-08-23T17:17:18.629Z,20.40
2018-08-23T17:19:47.726Z,20.50
2018-08-23T17:22:16.246Z,20.40
2018-08-23T17:24:45.204Z,20.50
2018-08-23T17:27:14.976Z,20.40
2018-08-23T17:29:45.229Z,20.30
2018-08-23T17:32:14.936Z,20.30
2018-08-23T17:34:43.822Z,20.40
2018-08-23T17:37:13.077Z,20.40
2018-08-23T17:39:42.025Z,20.40
2018-08-23T17:42:11.095Z,20.30
2018-08-23T17:44:40.066Z,20.30
2018-08-23T17:47:08.999Z,20.30
2018-08-23T17:49:37.505Z,20.20
2018-08-23T17:52:06.033Z,20.20
2018-08-23T17:54:34.261Z,20.10
2018-08-23T17:57:02.489Z,20.00
2018-08-23T17:59:35.256Z,20.00
2018-08-23T18:02:03.439Z,20.10
2018-08-23T18:04:31.674Z,20.10
2018-08-23T18:06:59.879Z,20.20
2018-08-23T18:09:28.127Z,20.10
2018-08-23T18:11:56.342Z,20.10
2018-08-23T18:14:24.550Z,20.10
2018-08-23T18:16:59.451Z,20.00
2018-08-23T18:19:28.117Z,20.00
2018-08-23T18:21:56.349Z,19.90
2018-08-23T18:24:24.578Z,19.90
2018-08-23T18:26:52.851Z,19.80
2018-08-23T18:29:21.087Z,19.80
2018-08-23T18:32:01.514Z,19.80
2018-08-23T18:34:29.676Z,19.70
2018-08-23T18:36:57.993Z,19.70
2018-08-23T18:39:26.205Z,19.70
2018-08-23T18:41:54.435Z,19.70
2018-08-23T18:44:22.661Z,19.60
2018-08-23T18:46:51.019Z,19.60
2018-08-23T18:49:19.367Z,19.60
2018-08-23T18:51:47.782Z,19.60
2018-08-23T18:54:16.313Z,19.60
2018-08-23T18:56:44.754Z,19.50
2018-08-23T18:59:13.438Z,19.40
2018-08-23T19:01:42.220Z,19.40
2018-08-23T19:04:11.351Z,19.40
2018-08-23T19:06:41.813Z,19.30
2018-08-23T19:09:12.663Z,19.20
2018-08-23T19:14:43.179Z,19.10
2018-08-23T19:17:45.844Z,19.00
2018-08-23T19:20:14.328Z,18.90
2018-08-23T19:22:42.893Z,18.90
2018-08-23T19:25:11.618Z,18.90
2018-08-23T19:27:40.970Z,18.90
2018-08-23T19:30:10.098Z,18.90
2018-08-23T19:32:38.415Z,18.90
2018-08-23T19:35:06.698Z,18.90
2018-08-23T19:37:35.077Z,18.90
2018-08-23T19:40:03.318Z,18.90
2018-08-23T19:42:31.586Z,19.00
2018-08-23T19:45:01.102Z,18.90
2018-08-23T19:47:34.802Z,18.90
2018-08-23T19:50:11.610Z,18.90
2018-08-23T19:52:40.397Z,19.00
2018-08-23T19:55:11.210Z,19.00
2018-08-23T19:57:40.293Z,19.00
2018-08-23T20:00:11.311Z,19.00
2018-08-23T20:02:40.002Z,19.00
2018-08-23T20:05:08.306Z,19.00
2018-08-23T20:07:36.563Z,19.00
2018-08-23T20:10:05.043Z,19.00
2018-08-23T20:12:35.461Z,19.00
2018-08-23T20:15:03.755Z,19.10
2018-08-23T20:17:32.171Z,19.20
2018-08-23T20:20:00.390Z,19.10
2018-08-23T20:22:28.653Z,19.00
2018-08-23T20:24:56.969Z,19.10
2018-08-23T20:27:25.135Z,19.10
2018-08-23T20:29:53.418Z,19.20
2018-08-23T20:32:21.713Z,19.20
2018-08-23T20:34:49.879Z,19.20
2018-08-23T20:37:18.326Z,19.10
2018-08-23T20:39:46.809Z,19.10
2018-08-23T20:42:15.450Z,19.10
2018-08-23T20:44:44.207Z,19.00
2018-08-23T20:47:12.959Z,18.90
2018-08-23T20:49:41.459Z,18.80
2018-08-23T20:52:10.323Z,18.80
2018-08-23T20:54:38.698Z,18.80
2018-08-23T20:57:07.017Z,18.80
2018-08-23T20:59:35.209Z,18.80
2018-08-23T21:02:03.415Z,18.80
2018-08-23T21:04:31.673Z,18.80
2018-08-23T21:06:59.850Z,18.80
2018-08-23T21:09:28.082Z,18.70
2018-08-23T21:12:10.480Z,18.70
2018-08-23T21:14:38.879Z,18.70
2018-08-23T21:17:07.141Z,18.70
2018-08-23T21:19:35.358Z,18.70
2018-08-23T21:22:03.576Z,18.70
2018-08-23T21:24:31.805Z,18.70
2018-08-23T21:27:00.037Z,18.70
2018-08-23T21:29:28.253Z,18.70
2018-08-23T21:31:56.466Z,18.80
2018-08-23T21:34:24.661Z,18.80
2018-08-23T21:36:52.961Z,18.70
2018-08-23T21:39:21.157Z,18.80
2018-08-23T21:41:49.607Z,18.90
2018-08-23T21:44:18.031Z,18.80
2018-08-23T21:46:46.416Z,18.80
2018-08-23T21:49:15.647Z,18.80
2018-08-23T21:51:44.075Z,18.70
2018-08-23T21:54:12.918Z,18.60
2018-08-23T21:56:41.537Z,18.60
2018-08-23T21:59:10.435Z,18.50
2018-08-23T22:01:38.818Z,18.50
2018-08-23T22:04:07.118Z,18.40
2018-08-23T22:06:36.625Z,18.50
2018-08-23T22:09:07.819Z,18.40
2018-08-23T22:11:36.085Z,18.40
2018-08-23T22:14:04.640Z,18.30
2018-08-23T22:16:33.026Z,18.20
2018-08-23T22:19:01.550Z,18.20
2018-08-23T22:21:29.834Z,18.20
2018-08-23T22:23:58.038Z,18.20
2018-08-23T22:26:29.607Z,18.10
2018-08-23T22:28:57.861Z,18.00
2018-08-23T22:31:26.227Z,17.90
2018-08-23T22:33:54.518Z,17.80
2018-08-23T22:36:22.777Z,17.70
2018-08-23T22:38:51.187Z,17.70
2018-08-23T22:41:21.421Z,17.60
2018-08-23T22:43:50.498Z,17.50
2018-08-23T22:46:19.978Z,17.40
2018-08-23T22:48:48.823Z,17.40
2018-08-23T22:51:17.595Z,17.40
2018-08-23T22:53:46.536Z,17.30
2018-08-23T22:56:15.419Z,17.20
2018-08-23T22:58:45.106Z,17.20
2018-08-23T23:01:15.204Z,17.10
2018-08-23T23:03:49.935Z,17.10
2018-08-23T23:06:18.337Z,17.10
2018-08-23T23:08:47.475Z,17.00
2018-08-23T23:11:17.236Z,17.10
2018-08-23T23:13:46.151Z,17.10
2018-08-23T23:16:15.230Z,17.20
2018-08-23T23:18:45.476Z,17.10
2018-08-23T23:21:14.245Z,17.00
2018-08-23T23:23:43.171Z,17.00
2018-08-23T23:26:13.030Z,16.90
2018-08-23T23:28:44.331Z,17.00
2018-08-23T23:31:15.454Z,17.00
2018-08-23T23:33:45.090Z,16.90
2018-08-23T23:36:14.642Z,16.90
2018-08-23T23:38:45.611Z,16.90
2018-08-23T23:41:15.506Z,16.90
2018-08-23T23:43:45.526Z,16.80
2018-08-23T23:46:16.318Z,16.80
2018-08-23T23:48:45.617Z,16.90
2018-08-23T23:51:14.946Z,16.90
2018-08-23T23:53:45.058Z,16.90
2018-08-23T23:56:14.524Z,16.90
2018-08-23T23:58:44.154Z,16.90
